Kezdőlap
METAR-TAF:

METAR-TAF

Repülőterek :

légibázis

Tulln an der Donau, Ausztria

földrajzi szélesség: 48-19N, földrajzi hosszúság: 016-07E, magasság: 175 m

METAR: hiányzik

Idő: 14:13 (12:13 UTC)

Előrejelzés

A jelentés 58 perccel ezelõtt készült, 11:15 UTC
Az előrejelzés 18-én 12 óra UTC és 18-én 21 óra UTC között érvényes
Keleti szél 10 kt
Látótávolság 10 km, vagy több
Kevés felhő 5000 lábon
Szórványos felhőzet 30000 lábon

TAF: LOXT 181115Z 1812/1821 10010KT 9999 FEW050 SCT300

Meteorológiai megfigyelések és előrejelzések több, mint 4000 repülőtéren (METAR és TAF jelentéseket).

A térképen piros és sárga pontok jelzik az elérhető meteorológiai állomásokat.

Mozgassa az egeret a pont fölött, hogy megjelenjen az állomás neve.

Azután kattintson az időjárási megfigyelések és előrejelzések megtekintéséhez.

A térkép megváltoztatása: kattintson a fekete keresztel jelölt zöld gombra ráközelítéshez, a vonallal jelölt zöld gombra távolításhoz, vagy a zöld nyilakra a szomszédos térképek eléréséhez.


METAR-TAF: